createdAt,value
2019-02-26T00:01:33.996Z,12.50
2019-02-26T00:04:04.061Z,12.13
2019-02-26T00:06:34.242Z,11.10
2019-02-26T00:09:24.951Z,11.97
2019-02-26T00:11:55.680Z,11.67
2019-02-26T00:14:27.613Z,12.20
2019-02-26T00:16:57.531Z,12.27
2019-02-26T00:19:28.420Z,12.63
2019-02-26T00:21:58.445Z,12.00
2019-02-26T00:24:30.577Z,11.77
2019-02-26T00:27:01.493Z,12.50
2019-02-26T00:29:33.872Z,12.60
2019-02-26T00:32:04.224Z,12.57
2019-02-26T00:34:34.587Z,12.83
2019-02-26T00:37:08.488Z,14.43
2019-02-26T00:39:38.662Z,13.73
2019-02-26T00:42:08.681Z,12.93
2019-02-26T00:44:38.733Z,13.40
2019-02-26T00:47:09.090Z,12.63
2019-02-26T00:49:39.291Z,13.07
2019-02-26T00:52:11.066Z,13.03
2019-02-26T00:54:41.110Z,15.55
2019-02-26T00:57:12.260Z,14.13
2019-02-26T00:59:44.074Z,13.70
2019-02-26T01:02:14.670Z,14.73
2019-02-26T01:04:46.744Z,13.93
2019-02-26T01:07:16.623Z,14.50
2019-02-26T01:09:47.883Z,14.20
2019-02-26T01:12:18.381Z,13.30
2019-02-26T01:14:50.243Z,14.40
2019-02-26T01:17:20.230Z,13.90
2019-02-26T01:19:50.276Z,13.70
2019-02-26T01:22:20.324Z,13.93
2019-02-26T01:24:51.957Z,13.03
2019-02-26T01:27:22.109Z,14.23
2019-02-26T01:29:53.986Z,13.73
2019-02-26T01:32:24.934Z,14.13
2019-02-26T01:34:55.079Z,15.43
2019-02-26T01:37:27.278Z,15.90
2019-02-26T01:39:56.852Z,15.83
2019-02-26T01:42:29.313Z,15.17
2019-02-26T01:44:59.059Z,15.50
2019-02-26T01:47:29.146Z,15.27
2019-02-26T01:49:59.441Z,15.97
2019-02-26T01:52:29.581Z,14.70
2019-02-26T01:55:00.755Z,14.37
2019-02-26T01:57:31.512Z,13.67
2019-02-26T02:00:01.534Z,13.20
2019-02-26T02:02:31.578Z,14.30
2019-02-26T02:05:03.154Z,13.73
2019-02-26T02:07:33.426Z,12.70
2019-02-26T02:10:04.548Z,13.77
2019-02-26T02:12:36.852Z,13.43
2019-02-26T02:15:08.093Z,13.53
2019-02-26T02:17:40.088Z,13.00
2019-02-26T02:20:13.080Z,13.90
2019-02-26T02:22:44.649Z,15.30
2019-02-26T02:25:14.689Z,15.27
2019-02-26T02:27:47.592Z,14.67
2019-02-26T02:30:22.553Z,14.13
2019-02-26T02:32:53.745Z,13.77
2019-02-26T02:35:20.475Z,14.70
2019-02-26T02:37:53.310Z,14.07
2019-02-26T02:40:22.252Z,14.07
2019-02-26T02:42:52.321Z,14.33
2019-02-26T02:45:22.378Z,14.30
2019-02-26T02:47:57.688Z,14.23
2019-02-26T02:50:24.434Z,14.47
2019-02-26T02:52:56.877Z,14.13
2019-02-26T02:55:26.346Z,14.67
2019-02-26T02:57:58.444Z,14.40
2019-02-26T03:00:28.799Z,15.53
2019-02-26T03:02:59.842Z,16.50
2019-02-26T03:05:32.082Z,16.50
2019-02-26T03:08:03.230Z,17.40
2019-02-26T03:10:34.628Z,15.97
2019-02-26T03:13:05.006Z,17.30
2019-02-26T03:15:35.849Z,16.20
2019-02-26T03:18:11.417Z,16.47
2019-02-26T03:20:40.393Z,16.87
2019-02-26T03:23:15.095Z,17.10
2019-02-26T03:25:44.432Z,16.33
2019-02-26T03:28:15.052Z,17.63
2019-02-26T03:30:45.155Z,17.57
2019-02-26T03:33:16.311Z,18.23
2019-02-26T03:35:46.507Z,18.60
2019-02-26T03:38:18.153Z,17.93
2019-02-26T03:40:49.336Z,18.37
2019-02-26T03:43:20.598Z,19.97
2019-02-26T03:45:50.672Z,20.30
2019-02-26T03:48:20.806Z,19.50
2019-02-26T03:50:50.922Z,18.30
2019-02-26T03:53:25.557Z,17.63
2019-02-26T03:55:52.988Z,18.33
2019-02-26T03:58:23.191Z,18.17
2019-02-26T04:00:53.450Z,17.77
2019-02-26T04:03:23.587Z,17.83
2019-02-26T04:05:57.163Z,21.73
2019-02-26T04:08:27.163Z,21.10
2019-02-26T04:10:59.537Z,20.30
2019-02-26T04:13:30.849Z,19.60
2019-02-26T04:16:04.609Z,19.53
2019-02-26T04:18:34.884Z,21.27
2019-02-26T04:21:05.924Z,20.97
2019-02-26T04:23:38.821Z,22.43
2019-02-26T04:26:26.456Z,20.27
2019-02-26T04:29:13.599Z,21.73
2019-02-26T04:32:23.704Z,20.70
2019-02-26T04:35:25.403Z,20.33
2019-02-26T04:38:53.216Z,19.93
2019-02-26T04:41:32.694Z,20.20
2019-02-26T04:44:50.075Z,19.90
2019-02-26T04:47:30.008Z,19.33
2019-02-26T04:50:00.495Z,19.07
2019-02-26T04:52:32.439Z,18.97
2019-02-26T04:55:02.938Z,18.70
2019-02-26T04:57:33.111Z,18.93
2019-02-26T05:00:05.087Z,18.97
2019-02-26T05:02:35.141Z,19.03
2019-02-26T05:05:05.498Z,18.73
2019-02-26T05:07:38.178Z,18.77
2019-02-26T05:10:07.252Z,18.70
2019-02-26T05:12:40.101Z,18.03
2019-02-26T05:15:11.452Z,18.47
2019-02-26T05:17:40.905Z,18.60
2019-02-26T05:20:13.490Z,18.10
2019-02-26T05:22:42.667Z,18.77
2019-02-26T05:25:16.305Z,18.70
2019-02-26T05:27:46.201Z,18.63
2019-02-26T05:30:19.241Z,19.17
2019-02-26T05:32:48.078Z,19.77
2019-02-26T05:35:20.882Z,19.03
2019-02-26T05:37:49.875Z,19.17
2019-02-26T05:40:22.201Z,20.70
2019-02-26T05:42:53.309Z,19.30
2019-02-26T05:45:25.761Z,20.00
2019-02-26T05:47:58.661Z,19.40
2019-02-26T05:50:26.978Z,19.80
2019-02-26T05:52:58.958Z,20.47
2019-02-26T05:55:29.027Z,20.17
2019-02-26T05:57:59.076Z,19.03
2019-02-26T06:00:32.858Z,20.03
2019-02-26T06:03:03.183Z,19.27
2019-02-26T06:05:33.299Z,20.30
2019-02-26T06:08:03.423Z,19.90
2019-02-26T06:10:33.527Z,19.67
2019-02-26T06:13:05.021Z,20.23
2019-02-26T06:15:35.607Z,21.17
2019-02-26T06:18:05.723Z,22.93
2019-02-26T06:20:36.609Z,22.13
2019-02-26T06:23:07.185Z,21.03
2019-02-26T06:25:37.238Z,22.50
2019-02-26T06:28:09.965Z,22.13
2019-02-26T06:30:39.105Z,21.33
2019-02-26T06:33:11.640Z,23.73
2019-02-26T06:35:42.766Z,23.60
2019-02-26T06:38:12.695Z,22.10
2019-02-26T06:40:47.125Z,22.97
2019-02-26T06:43:14.541Z,23.87
2019-02-26T06:45:45.974Z,25.27
2019-02-26T06:48:17.630Z,24.50
2019-02-26T06:50:48.306Z,22.80
2019-02-26T06:53:19.327Z,23.50
2019-02-26T06:55:50.349Z,24.17
2019-02-26T06:58:26.589Z,23.23
2019-02-26T07:00:58.197Z,24.27
2019-02-26T07:03:28.458Z,24.60
2019-02-26T07:06:04.817Z,25.93
2019-02-26T07:08:33.977Z,24.20
2019-02-26T07:11:04.606Z,24.47
2019-02-26T07:13:38.604Z,23.57
2019-02-26T07:16:10.716Z,23.03
2019-02-26T07:18:42.220Z,25.27
2019-02-26T07:21:12.408Z,23.77
2019-02-26T07:23:42.539Z,23.90
2019-02-26T07:26:13.547Z,25.47
2019-02-26T07:28:46.971Z,25.33
2019-02-26T07:31:18.040Z,24.23
2019-02-26T07:33:48.201Z,25.40
2019-02-26T07:36:20.623Z,24.90
2019-02-26T07:38:52.029Z,23.73
2019-02-26T07:41:23.164Z,23.33
2019-02-26T07:43:54.908Z,24.70
2019-02-26T07:46:25.047Z,24.23
2019-02-26T07:48:57.175Z,23.37
2019-02-26T07:51:26.875Z,24.37
2019-02-26T07:53:58.392Z,24.37
2019-02-26T07:56:32.073Z,24.87
2019-02-26T07:59:02.055Z,23.27
2019-02-26T08:01:32.376Z,24.10
2019-02-26T08:04:02.496Z,24.00
2019-02-26T08:06:33.908Z,23.63
2019-02-26T08:09:09.102Z,24.53
2019-02-26T08:11:39.179Z,22.87
2019-02-26T08:14:09.746Z,23.43
2019-02-26T08:16:39.868Z,22.47
2019-02-26T08:19:09.915Z,23.77
2019-02-26T08:21:39.973Z,22.17
2019-02-26T08:24:12.022Z,23.00
2019-02-26T08:26:43.028Z,22.50
2019-02-26T08:29:13.589Z,22.37
2019-02-26T08:31:46.577Z,21.63
2019-02-26T08:34:15.832Z,21.20
2019-02-26T08:36:46.822Z,21.70
2019-02-26T08:39:17.035Z,21.20
2019-02-26T08:42:10.165Z,20.43
2019-02-26T08:44:46.215Z,20.70
2019-02-26T08:47:16.215Z,20.00
2019-02-26T08:49:47.496Z,20.57
2019-02-26T08:52:21.469Z,22.23
2019-02-26T08:54:49.577Z,21.40
2019-02-26T08:57:19.578Z,20.13
2019-02-26T08:59:51.841Z,20.33
2019-02-26T09:02:21.783Z,19.73
2019-02-26T09:04:51.826Z,19.63
2019-02-26T09:07:23.687Z,18.10
2019-02-26T09:09:55.350Z,17.60
2019-02-26T09:12:27.195Z,18.37
2019-02-26T09:14:57.475Z,17.20
2019-02-26T09:17:31.911Z,16.40
2019-02-26T09:20:08.360Z,15.87
2019-02-26T09:22:31.115Z,15.80
2019-02-26T09:25:02.185Z,15.20
2019-02-26T09:27:34.483Z,15.40
2019-02-26T09:30:06.726Z,13.87
2019-02-26T09:32:39.827Z,14.40
2019-02-26T09:35:10.872Z,13.50
2019-02-26T09:37:42.857Z,13.40
2019-02-26T09:40:16.873Z,13.40
2019-02-26T09:42:50.730Z,14.20
2019-02-26T09:45:23.690Z,14.03
2019-02-26T09:47:55.600Z,14.00
2019-02-26T09:50:24.905Z,12.57
2019-02-26T09:52:56.631Z,14.60
2019-02-26T09:55:26.709Z,13.70
2019-02-26T09:57:56.927Z,14.10
2019-02-26T10:00:29.436Z,13.73
2019-02-26T10:02:58.890Z,13.33
2019-02-26T10:05:29.524Z,12.43
2019-02-26T10:08:02.145Z,12.00
2019-02-26T10:10:33.786Z,12.27
2019-02-26T10:13:04.782Z,11.70
2019-02-26T10:15:37.325Z,11.57
2019-02-26T10:18:09.336Z,11.77
2019-02-26T10:20:38.685Z,11.30
2019-02-26T10:23:08.761Z,10.90
2019-02-26T10:25:39.003Z,11.03
2019-02-26T10:28:11.592Z,11.10
2019-02-26T10:30:41.703Z,11.43
2019-02-26T10:33:12.008Z,11.40
2019-02-26T10:35:45.100Z,11.00
2019-02-26T10:38:16.360Z,9.67
2019-02-26T10:40:53.234Z,9.77
2019-02-26T10:43:17.443Z,10.50
2019-02-26T10:45:50.551Z,9.73
2019-02-26T10:48:22.833Z,9.90
2019-02-26T10:50:52.799Z,9.37
2019-02-26T10:53:23.204Z,9.60
2019-02-26T10:55:53.266Z,9.53
2019-02-26T10:58:23.383Z,9.47
2019-02-26T11:00:55.604Z,8.90
2019-02-26T11:03:25.997Z,9.07
2019-02-26T11:05:56.059Z,9.53
2019-02-26T11:08:29.539Z,8.50
2019-02-26T11:11:00.299Z,8.50
2019-02-26T11:13:30.505Z,8.90
2019-02-26T11:16:02.995Z,9.07
2019-02-26T11:18:34.632Z,8.80
2019-02-26T11:21:04.157Z,9.17
2019-02-26T11:23:36.325Z,9.23
2019-02-26T11:26:09.138Z,8.13
2019-02-26T11:28:40.452Z,8.33
2019-02-26T11:31:12.232Z,7.60
2019-02-26T11:33:41.636Z,7.17
2019-02-26T11:36:13.101Z,6.83
2019-02-26T11:38:44.523Z,7.10
2019-02-26T11:41:15.271Z,6.30
2019-02-26T11:43:45.552Z,7.03
2019-02-26T11:46:15.740Z,6.63
2019-02-26T11:48:47.593Z,6.63
2019-02-26T11:51:19.911Z,5.73
2019-02-26T11:53:49.429Z,5.83
2019-02-26T11:56:21.326Z,5.50
2019-02-26T11:58:51.642Z,5.40
2019-02-26T12:01:21.886Z,5.63
2019-02-26T12:03:55.901Z,6.17
2019-02-26T12:06:23.695Z,5.53
2019-02-26T12:08:53.749Z,5.20
2019-02-26T12:11:23.837Z,5.40
2019-02-26T12:13:53.937Z,4.90
2019-02-26T12:16:24.066Z,5.13
2019-02-26T12:18:54.351Z,4.80
2019-02-26T12:21:25.691Z,3.87
2019-02-26T12:23:58.100Z,3.77
2019-02-26T12:26:30.247Z,3.30
2019-02-26T12:31:55.546Z,3.30
2019-02-26T12:34:38.485Z,3.17
2019-02-26T12:37:11.599Z,3.40
2019-02-26T12:39:40.668Z,3.07
2019-02-26T12:42:13.451Z,4.17
2019-02-26T12:44:45.359Z,3.07
2019-02-26T12:47:15.519Z,3.50
2019-02-26T12:49:46.402Z,3.30
2019-02-26T12:52:18.031Z,3.30
2019-02-26T12:54:48.233Z,3.70
2019-02-26T12:57:19.926Z,3.90
2019-02-26T12:59:50.550Z,3.27
2019-02-26T13:02:21.840Z,3.90
2019-02-26T13:04:53.436Z,3.27
2019-02-26T13:07:23.710Z,3.00
2019-02-26T13:09:56.081Z,3.30
2019-02-26T13:12:29.670Z,2.77
2019-02-26T13:15:04.771Z,2.53
2019-02-26T13:17:32.218Z,2.40
2019-02-26T13:20:01.684Z,4.13
2019-02-26T13:22:33.614Z,2.90
2019-02-26T13:25:08.257Z,3.33
2019-02-26T13:27:38.853Z,3.80
2019-02-26T13:30:11.599Z,3.63
2019-02-26T13:32:55.416Z,3.90
2019-02-26T13:35:13.407Z,3.90
2019-02-26T13:37:43.570Z,4.27
2019-02-26T13:40:15.565Z,4.30
2019-02-26T13:42:50.216Z,4.20
2019-02-26T13:45:19.470Z,4.60
2019-02-26T13:47:49.523Z,4.30
2019-02-26T13:50:24.363Z,4.50
2019-02-26T13:52:54.396Z,4.50
2019-02-26T13:55:24.535Z,4.50
2019-02-26T13:57:54.622Z,4.70
2019-02-26T14:00:27.638Z,4.70
2019-02-26T14:03:09.738Z,4.23
2019-02-26T14:05:51.479Z,4.07
2019-02-26T14:08:21.676Z,3.40
2019-02-26T14:10:51.761Z,3.03
2019-02-26T14:13:21.981Z,3.30
2019-02-26T14:15:52.027Z,2.93
2019-02-26T14:18:22.047Z,3.00
2019-02-26T14:20:52.107Z,2.93
2019-02-26T14:23:22.247Z,3.10
2019-02-26T14:25:52.348Z,3.23
2019-02-26T14:28:25.273Z,2.83
2019-02-26T14:30:55.462Z,3.20
2019-02-26T14:33:25.499Z,3.67
2019-02-26T14:35:55.526Z,3.50
2019-02-26T14:38:25.660Z,3.57
2019-02-26T14:40:55.700Z,3.60
2019-02-26T14:43:25.794Z,4.10
2019-02-26T14:45:57.101Z,4.03
2019-02-26T14:48:27.131Z,4.00
2019-02-26T14:50:57.371Z,4.13
2019-02-26T14:53:27.696Z,3.73
2019-02-26T14:55:57.797Z,3.83
2019-02-26T14:58:27.923Z,3.90
2019-02-26T15:01:00.390Z,3.50
2019-02-26T15:03:30.601Z,3.80
2019-02-26T15:06:00.773Z,4.10
2019-02-26T15:08:30.793Z,4.13
2019-02-26T15:11:00.809Z,4.57
2019-02-26T15:13:30.976Z,4.77
2019-02-26T15:16:01.083Z,4.93
2019-02-26T15:18:31.187Z,4.83
2019-02-26T15:21:01.257Z,5.30
2019-02-26T15:23:31.324Z,4.97
2019-02-26T15:26:01.329Z,4.87
2019-02-26T15:28:31.369Z,5.33
2019-02-26T15:31:01.405Z,4.33
2019-02-26T15:33:31.585Z,4.20
2019-02-26T15:36:01.792Z,4.13
2019-02-26T15:38:32.113Z,3.80
2019-02-26T15:41:02.406Z,3.50
2019-02-26T15:43:32.561Z,3.53
2019-02-26T15:46:02.638Z,3.97
2019-02-26T15:48:33.682Z,3.00
2019-02-26T15:51:04.497Z,3.33
2019-02-26T15:53:34.564Z,5.37
2019-02-26T15:56:05.541Z,3.47
2019-02-26T15:58:35.592Z,3.50
2019-02-26T16:01:10.320Z,3.70
2019-02-26T16:03:40.490Z,3.93
2019-02-26T16:06:10.503Z,3.80
2019-02-26T16:08:41.330Z,3.57
2019-02-26T16:11:13.201Z,4.00
2019-02-26T16:13:43.624Z,4.50
2019-02-26T16:16:13.725Z,3.80
2019-02-26T16:18:44.089Z,4.40
2019-02-26T16:21:18.484Z,4.43
2019-02-26T16:23:47.755Z,4.30
2019-02-26T16:26:19.241Z,4.30
2019-02-26T16:28:49.342Z,4.40
2019-02-26T16:31:21.017Z,4.33
2019-02-26T16:33:51.234Z,4.23
2019-02-26T16:36:21.311Z,4.07
2019-02-26T16:38:51.674Z,4.90
2019-02-26T16:41:21.798Z,4.77
2019-02-26T16:43:52.412Z,4.70
2019-02-26T16:46:22.546Z,4.30
2019-02-26T16:48:53.539Z,5.03
2019-02-26T16:51:24.073Z,4.80
2019-02-26T16:53:54.119Z,4.47
2019-02-26T16:56:24.128Z,4.00
2019-02-26T16:58:54.543Z,3.87
2019-02-26T17:01:24.552Z,4.37
2019-02-26T17:03:54.672Z,4.70
2019-02-26T17:06:24.697Z,4.20
2019-02-26T17:08:54.819Z,4.37
2019-02-26T17:11:24.958Z,4.50
2019-02-26T17:13:55.171Z,4.57
2019-02-26T17:16:25.236Z,5.00
2019-02-26T17:18:55.363Z,4.93
2019-02-26T17:21:25.458Z,4.90
2019-02-26T17:23:55.578Z,5.43
2019-02-26T17:26:25.582Z,5.63
2019-02-26T17:28:55.628Z,7.50
2019-02-26T17:31:25.771Z,8.03
2019-02-26T17:33:56.172Z,8.57
2019-02-26T17:36:26.343Z,7.53
2019-02-26T17:38:58.170Z,7.23
2019-02-26T17:41:28.284Z,6.97
2019-02-26T17:43:59.609Z,6.53
2019-02-26T17:46:29.919Z,6.10
2019-02-26T17:49:02.678Z,5.30
2019-02-26T17:51:31.701Z,5.20
2019-02-26T17:54:01.996Z,4.80
2019-02-26T17:56:33.460Z,5.20
2019-02-26T17:59:03.688Z,6.63
2019-02-26T18:01:33.903Z,7.10
2019-02-26T18:04:03.980Z,7.10
2019-02-26T18:06:34.008Z,8.03
2019-02-26T18:09:04.985Z,8.30
2019-02-26T18:11:36.536Z,8.87
2019-02-26T18:14:06.879Z,9.10
2019-02-26T18:16:37.313Z,9.50
2019-02-26T18:19:11.540Z,8.63
2019-02-26T18:21:43.216Z,8.60
2019-02-26T18:24:11.203Z,8.80
2019-02-26T18:26:41.348Z,8.50
2019-02-26T18:29:11.469Z,8.30
2019-02-26T18:31:41.466Z,8.60
2019-02-26T18:34:11.829Z,8.33
2019-02-26T18:36:45.440Z,8.00
2019-02-26T18:39:15.380Z,8.43
2019-02-26T18:41:50.756Z,8.30
2019-02-26T18:44:17.825Z,8.10
2019-02-26T18:46:49.516Z,7.70
2019-02-26T18:49:21.445Z,7.80
2019-02-26T18:51:51.504Z,7.90
2019-02-26T18:54:21.671Z,7.70
2019-02-26T18:56:53.358Z,7.63
2019-02-26T18:59:23.599Z,7.70
2019-02-26T19:01:53.622Z,8.17
2019-02-26T19:04:23.772Z,9.37
2019-02-26T19:06:53.852Z,9.07
2019-02-26T19:09:23.911Z,8.70
2019-02-26T19:11:55.560Z,8.70
2019-02-26T19:14:25.748Z,9.07
2019-02-26T19:16:55.805Z,13.03
2019-02-26T19:19:26.306Z,14.53
2019-02-26T19:21:58.860Z,16.90
2019-02-26T19:24:28.628Z,17.40
2019-02-26T19:26:58.651Z,16.80
2019-02-26T19:29:31.175Z,16.23
2019-02-26T19:32:00.484Z,16.17
2019-02-26T19:34:30.620Z,15.87
2019-02-26T19:37:03.901Z,15.93
2019-02-26T19:39:34.290Z,15.23
2019-02-26T19:42:05.205Z,14.80
2019-02-26T19:44:35.998Z,14.77
2019-02-26T19:47:06.575Z,14.50
2019-02-26T19:49:39.395Z,14.20
2019-02-26T19:52:08.610Z,13.60
2019-02-26T19:54:41.574Z,14.23
2019-02-26T19:57:12.208Z,13.30
2019-02-26T19:59:42.103Z,13.93
2019-02-26T20:02:12.137Z,14.93
2019-02-26T20:04:42.157Z,14.73
2019-02-26T20:07:12.175Z,13.17
2019-02-26T20:09:42.217Z,12.80
2019-02-26T20:12:12.459Z,12.00
2019-02-26T20:14:48.600Z,12.10
2019-02-26T20:17:16.843Z,11.53
2019-02-26T20:19:47.171Z,11.47
2019-02-26T20:22:17.293Z,10.97
2019-02-26T20:24:47.400Z,10.23
2019-02-26T20:27:21.598Z,10.13
2019-02-26T20:29:50.683Z,10.13
2019-02-26T20:32:21.265Z,9.33
2019-02-26T20:34:51.347Z,10.37
2019-02-26T20:37:21.996Z,9.47
2019-02-26T20:39:53.360Z,9.83
2019-02-26T20:42:23.419Z,9.07
2019-02-26T20:44:58.958Z,8.80
2019-02-26T20:47:31.283Z,8.83
2019-02-26T20:49:59.838Z,9.37
2019-02-26T20:52:32.633Z,9.43
2019-02-26T20:55:01.663Z,10.23
2019-02-26T20:57:31.717Z,11.10
2019-02-26T21:00:01.828Z,11.57
2019-02-26T21:02:32.063Z,12.10
2019-02-26T21:05:02.241Z,11.30
2019-02-26T21:07:32.446Z,11.43
2019-02-26T21:10:04.006Z,13.07
2019-02-26T21:12:34.910Z,12.77
2019-02-26T21:15:06.044Z,13.53
2019-02-26T21:17:36.789Z,13.70
2019-02-26T21:20:08.215Z,13.13
2019-02-26T21:22:41.585Z,13.43
2019-02-26T21:25:11.661Z,13.57
2019-02-26T21:27:41.903Z,12.60
2019-02-26T21:30:13.952Z,12.20
2019-02-26T21:32:44.102Z,12.33
2019-02-26T21:35:14.151Z,11.27
2019-02-26T21:37:44.267Z,10.87
2019-02-26T21:40:16.155Z,11.10
2019-02-26T21:42:46.032Z,11.80
2019-02-26T21:45:17.283Z,12.47
2019-02-26T21:47:47.347Z,11.53
2019-02-26T21:50:22.126Z,11.27
2019-02-26T21:53:04.797Z,11.77
2019-02-26T21:55:21.111Z,11.43
2019-02-26T21:57:54.513Z,11.27
2019-02-26T22:00:22.924Z,11.97
2019-02-26T22:02:53.115Z,12.00
2019-02-26T22:05:23.763Z,12.30
2019-02-26T22:07:53.794Z,11.77
2019-02-26T22:10:24.255Z,13.20
2019-02-26T22:12:56.613Z,12.37
2019-02-26T22:15:26.341Z,12.97
2019-02-26T22:17:58.195Z,11.87
2019-02-26T22:20:36.163Z,12.43
2019-02-26T22:23:00.490Z,12.47
2019-02-26T22:25:31.283Z,12.20
2019-02-26T22:28:01.423Z,13.03
2019-02-26T22:30:35.029Z,12.10
2019-02-26T22:33:07.769Z,12.47
2019-02-26T22:35:38.040Z,12.27
2019-02-26T22:38:08.557Z,13.10
2019-02-26T22:40:39.130Z,12.23
2019-02-26T22:43:13.618Z,12.50
2019-02-26T22:45:41.079Z,13.97
2019-02-26T22:48:13.473Z,13.30
2019-02-26T22:50:42.905Z,14.10
2019-02-26T22:53:12.949Z,13.30
2019-02-26T22:55:43.173Z,13.13
2019-02-26T22:58:13.411Z,13.50
2019-02-26T23:01:30.271Z,13.23
2019-02-26T23:03:54.277Z,14.17
2019-02-26T23:06:24.392Z,13.13
2019-02-26T23:08:54.593Z,13.13
2019-02-26T23:11:31.674Z,13.23
2019-02-26T23:14:02.652Z,11.90
2019-02-26T23:16:33.541Z,12.87
2019-02-26T23:19:04.687Z,12.73
2019-02-26T23:21:35.691Z,12.90
2019-02-26T23:24:06.599Z,13.00
2019-02-26T23:26:41.804Z,13.87
2019-02-26T23:29:09.582Z,12.27
2019-02-26T23:31:40.694Z,12.43
2019-02-26T23:34:13.400Z,13.17
2019-02-26T23:36:43.616Z,13.57
2019-02-26T23:39:15.455Z,13.20
2019-02-26T23:41:47.033Z,13.07
2019-02-26T23:44:18.107Z,12.30
2019-02-26T23:46:50.516Z,11.87
2019-02-26T23:49:20.970Z,12.27
2019-02-26T23:51:53.645Z,12.13
2019-02-26T23:54:22.751Z,12.50
2019-02-26T23:56:52.783Z,13.73
2019-02-26T23:59:22.899Z,12.67
